createdAt,value
2023-02-23T00:01:29.405Z,70.80
2023-02-23T00:03:59.460Z,70.85
2023-02-23T00:06:30.926Z,70.98
2023-02-23T00:09:01.833Z,71.11
2023-02-23T00:11:30.526Z,71.11
2023-02-23T00:14:01.488Z,71.17
2023-02-23T00:16:31.298Z,71.27
2023-02-23T00:19:00.750Z,71.41
2023-02-23T00:21:35.269Z,71.14
2023-02-23T00:24:08.611Z,70.97
2023-02-23T00:26:39.619Z,71.07
2023-02-23T00:29:18.464Z,71.15
2023-02-23T00:31:48.155Z,71.15
2023-02-23T00:34:21.414Z,71.23
2023-02-23T00:36:54.744Z,71.42
2023-02-23T00:39:29.584Z,71.44
2023-02-23T00:42:03.667Z,71.52
2023-02-23T00:44:34.438Z,71.50
2023-02-23T00:47:04.811Z,71.48
2023-02-23T00:49:34.474Z,71.65
2023-02-23T00:52:05.724Z,71.55
2023-02-23T00:54:35.131Z,71.68
2023-02-23T00:57:03.709Z,71.69
2023-02-23T00:59:33.030Z,71.70
2023-02-23T01:02:02.499Z,71.86
2023-02-23T01:04:31.212Z,71.82
2023-02-23T01:07:00.120Z,71.98
2023-02-23T01:09:29.900Z,72.00
2023-02-23T01:12:02.190Z,72.19
2023-02-23T01:14:31.536Z,72.22
2023-02-23T01:17:00.584Z,72.15
2023-02-23T01:19:29.288Z,72.24
2023-02-23T01:21:58.179Z,72.24
2023-02-23T01:24:26.735Z,72.29
2023-02-23T01:26:58.561Z,72.36
2023-02-23T01:29:28.922Z,72.37
2023-02-23T01:31:57.547Z,72.34
2023-02-23T01:34:26.254Z,72.43
2023-02-23T01:36:55.493Z,72.59
2023-02-23T01:39:29.721Z,72.68
2023-02-23T01:41:58.846Z,72.70
2023-02-23T01:44:31.613Z,72.59
2023-02-23T01:47:00.577Z,72.67
2023-02-23T01:49:35.214Z,72.64
2023-02-23T01:52:15.130Z,72.63
2023-02-23T01:54:51.675Z,72.73
2023-02-23T01:57:25.248Z,72.71
2023-02-23T01:59:55.936Z,72.76
2023-02-23T02:02:34.029Z,72.83
2023-02-23T02:05:05.840Z,72.83
2023-02-23T02:07:35.644Z,72.85
2023-02-23T02:10:13.506Z,72.88
2023-02-23T02:12:52.191Z,72.90
2023-02-23T02:15:26.608Z,72.86
2023-02-23T02:18:24.143Z,72.92
2023-02-23T02:21:08.165Z,73.01
2023-02-23T02:23:59.310Z,72.99
2023-02-23T02:26:45.835Z,72.92
2023-02-23T02:29:47.364Z,72.97
2023-02-23T02:32:45.001Z,73.15
2023-02-23T02:35:19.219Z,73.10
2023-02-23T02:37:57.795Z,73.17
2023-02-23T02:40:53.601Z,73.18
2023-02-23T02:43:54.965Z,73.05
2023-02-23T02:46:30.995Z,73.36
2023-02-23T02:49:12.722Z,73.30
2023-02-23T02:51:49.450Z,73.32
2023-02-23T02:54:37.630Z,73.26
2023-02-23T02:57:08.058Z,73.26
2023-02-23T03:00:06.669Z,73.11
2023-02-23T03:02:57.635Z,73.30
2023-02-23T03:05:50.930Z,73.18
2023-02-23T03:09:07.146Z,73.33
2023-02-23T03:12:12.277Z,73.23
2023-02-23T03:15:18.977Z,73.33
2023-02-23T03:18:28.196Z,73.19
2023-02-23T03:21:22.631Z,73.38
2023-02-23T03:24:27.921Z,73.45
2023-02-23T03:27:55.285Z,73.38
2023-02-23T03:30:55.449Z,73.55
2023-02-23T03:33:55.706Z,73.38
2023-02-23T03:36:50.206Z,73.40
2023-02-23T03:40:18.967Z,73.48
2023-02-23T03:43:11.167Z,73.72
2023-02-23T03:46:00.358Z,73.63
2023-02-23T03:48:50.426Z,73.60
2023-02-23T03:51:40.076Z,73.59
2023-02-23T03:54:37.843Z,73.70
2023-02-23T03:57:30.231Z,73.67
2023-02-23T04:00:22.852Z,73.53
2023-02-23T04:03:12.334Z,73.38
2023-02-23T04:06:01.243Z,73.56
2023-02-23T04:08:56.405Z,73.67
2023-02-23T04:11:53.481Z,73.64
2023-02-23T04:14:40.108Z,73.55
2023-02-23T04:17:10.437Z,73.70
2023-02-23T04:19:39.415Z,73.67
2023-02-23T04:22:08.066Z,73.69
2023-02-23T04:24:36.837Z,73.71
2023-02-23T04:27:06.649Z,73.65
2023-02-23T04:29:39.188Z,73.73
2023-02-23T04:32:12.961Z,73.79
2023-02-23T04:34:42.758Z,73.87
2023-02-23T04:37:12.332Z,73.83
2023-02-23T04:39:40.993Z,73.82
2023-02-23T04:42:10.612Z,73.74
2023-02-23T04:44:39.888Z,73.68
2023-02-23T04:47:08.481Z,73.75
2023-02-23T04:49:37.241Z,73.66
2023-02-23T04:52:07.041Z,73.60
2023-02-23T04:54:41.176Z,73.75
2023-02-23T04:57:10.709Z,73.66
2023-02-23T04:59:39.308Z,73.83
2023-02-23T05:02:08.501Z,73.91
2023-02-23T05:04:37.627Z,73.89
2023-02-23T05:07:06.345Z,73.94
2023-02-23T05:09:35.464Z,73.99
2023-02-23T05:12:04.305Z,73.97
2023-02-23T05:14:32.946Z,73.99
2023-02-23T05:17:01.648Z,73.89
2023-02-23T05:19:30.474Z,73.97
2023-02-23T05:21:59.346Z,74.02
2023-02-23T05:24:28.294Z,73.87
2023-02-23T05:26:57.121Z,73.86
2023-02-23T05:29:25.750Z,73.87
2023-02-23T05:31:55.142Z,73.94
2023-02-23T05:34:24.459Z,73.94
2023-02-23T05:36:54.558Z,74.07
2023-02-23T05:39:23.515Z,73.93
2023-02-23T05:41:52.987Z,74.03
2023-02-23T05:44:21.562Z,74.39
2023-02-23T05:46:50.263Z,74.48
2023-02-23T05:49:19.477Z,74.53
2023-02-23T05:51:47.977Z,74.28
2023-02-23T05:54:17.032Z,74.29
2023-02-23T05:56:46.393Z,74.40
2023-02-23T05:59:18.002Z,74.33
2023-02-23T06:01:47.234Z,74.41
2023-02-23T06:04:16.021Z,74.45
2023-02-23T06:06:45.468Z,74.69
2023-02-23T06:09:14.534Z,74.49
2023-02-23T06:11:43.181Z,74.50
2023-02-23T06:14:12.378Z,74.59
2023-02-23T06:16:41.779Z,74.53
2023-02-23T06:19:10.842Z,74.57
2023-02-23T06:21:39.529Z,74.48
2023-02-23T06:24:09.231Z,74.66
2023-02-23T06:26:38.258Z,74.72
2023-02-23T06:29:08.622Z,74.73
2023-02-23T06:31:37.391Z,74.79
2023-02-23T06:34:06.044Z,74.71
2023-02-23T06:36:35.147Z,74.71
2023-02-23T06:39:04.372Z,74.75
2023-02-23T06:41:33.771Z,74.77
2023-02-23T06:44:03.113Z,74.85
2023-02-23T06:46:33.717Z,74.94
2023-02-23T06:49:02.609Z,75.02
2023-02-23T06:51:31.613Z,74.85
2023-02-23T06:54:00.537Z,74.81
2023-02-23T06:56:29.161Z,74.73
2023-02-23T06:58:58.386Z,74.97
2023-02-23T07:01:27.479Z,75.19
2023-02-23T07:03:56.245Z,74.91
2023-02-23T07:06:25.436Z,74.86
2023-02-23T07:08:58.260Z,74.91
2023-02-23T07:11:26.932Z,75.03
2023-02-23T07:14:01.764Z,74.98
2023-02-23T07:16:31.464Z,75.11
2023-02-23T07:19:00.144Z,75.31
2023-02-23T07:21:29.078Z,75.25
2023-02-23T07:23:58.330Z,75.41
2023-02-23T07:26:28.009Z,75.41
2023-02-23T07:28:56.624Z,75.39
2023-02-23T07:31:26.964Z,75.43
2023-02-23T07:33:55.877Z,75.24
2023-02-23T07:36:25.182Z,75.37
2023-02-23T07:38:54.852Z,75.70
2023-02-23T07:41:24.226Z,75.77
2023-02-23T07:43:52.777Z,75.52
2023-02-23T07:46:22.659Z,75.79
2023-02-23T07:48:51.710Z,75.82
2023-02-23T07:51:21.026Z,75.95
2023-02-23T07:53:50.306Z,75.86
2023-02-23T07:56:19.543Z,75.85
2023-02-23T07:58:48.352Z,75.80
2023-02-23T08:01:17.627Z,75.97
2023-02-23T08:03:49.920Z,76.03
2023-02-23T08:06:20.678Z,75.79
2023-02-23T08:08:49.512Z,75.15
2023-02-23T08:11:18.442Z,75.70
2023-02-23T08:13:47.962Z,75.89
2023-02-23T08:16:18.931Z,74.93
2023-02-23T08:18:47.659Z,75.20
2023-02-23T08:21:16.952Z,75.49
2023-02-23T08:23:46.197Z,75.74
2023-02-23T08:26:14.864Z,75.54
2023-02-23T08:28:46.366Z,75.50
2023-02-23T08:31:19.030Z,75.90
2023-02-23T08:33:48.332Z,75.78
2023-02-23T08:36:17.221Z,75.50
2023-02-23T08:38:45.888Z,75.79
2023-02-23T08:41:15.515Z,75.79
2023-02-23T08:43:44.394Z,75.36
2023-02-23T08:46:13.495Z,75.66
2023-02-23T08:48:43.099Z,75.85
2023-02-23T08:51:11.890Z,75.70
2023-02-23T08:53:41.878Z,75.54
2023-02-23T08:56:16.057Z,75.56
2023-02-23T08:58:59.746Z,75.67
2023-02-23T09:01:37.502Z,75.47
2023-02-23T09:04:07.195Z,75.47
2023-02-23T09:06:36.879Z,75.52
2023-02-23T09:09:06.247Z,75.61
2023-02-23T09:11:35.022Z,75.50
2023-02-23T09:14:04.264Z,74.85
2023-02-23T09:16:34.107Z,75.13
2023-02-23T09:19:04.048Z,75.46
2023-02-23T09:21:34.819Z,75.12
2023-02-23T09:24:03.667Z,75.20
2023-02-23T09:26:33.735Z,75.19
2023-02-23T09:29:03.379Z,74.83
2023-02-23T09:31:32.486Z,75.01
2023-02-23T09:34:02.211Z,74.77
2023-02-23T09:36:31.963Z,74.74
2023-02-23T09:39:01.135Z,74.83
2023-02-23T09:42:04.171Z,74.81
2023-02-23T09:44:58.113Z,74.74
2023-02-23T09:47:52.511Z,74.76
2023-02-23T09:50:24.000Z,74.71
2023-02-23T09:53:04.913Z,74.72
2023-02-23T09:55:34.191Z,74.78
2023-02-23T09:58:09.222Z,74.64
2023-02-23T10:00:44.652Z,74.44
2023-02-23T10:03:28.756Z,74.25
2023-02-23T10:06:09.352Z,74.22
2023-02-23T10:08:50.747Z,74.20
2023-02-23T10:11:42.231Z,74.25
2023-02-23T10:14:23.053Z,73.96
2023-02-23T10:17:16.727Z,73.79
2023-02-23T10:19:56.953Z,73.41
2023-02-23T10:22:26.876Z,73.29
2023-02-23T10:25:10.275Z,73.42
2023-02-23T10:27:45.639Z,73.43
2023-02-23T10:30:40.586Z,73.35
2023-02-23T10:33:29.005Z,73.23
2023-02-23T10:36:13.312Z,73.08
2023-02-23T10:38:42.718Z,72.96
2023-02-23T10:41:14.932Z,72.78
2023-02-23T10:43:43.989Z,72.21
2023-02-23T10:46:22.887Z,72.34
2023-02-23T10:48:56.005Z,72.18
2023-02-23T10:51:34.972Z,72.21
2023-02-23T10:54:36.457Z,72.27
2023-02-23T10:57:08.182Z,72.14
2023-02-23T10:59:37.222Z,72.14
2023-02-23T11:02:25.982Z,71.92
2023-02-23T11:04:57.868Z,71.81
2023-02-23T11:07:32.450Z,71.69
2023-02-23T11:10:26.234Z,71.56
2023-02-23T11:12:55.564Z,71.27
2023-02-23T11:15:49.913Z,71.20
2023-02-23T11:18:24.324Z,71.22
2023-02-23T11:20:55.046Z,71.13
2023-02-23T11:23:31.842Z,71.13
2023-02-23T11:26:03.896Z,70.88
2023-02-23T11:28:36.626Z,70.70
2023-02-23T11:31:26.648Z,70.43
2023-02-23T11:33:57.716Z,69.98
2023-02-23T11:36:43.501Z,70.14
2023-02-23T11:39:25.062Z,69.91
2023-02-23T11:42:15.931Z,69.50
2023-02-23T11:44:50.893Z,69.81
2023-02-23T11:47:23.211Z,69.76
2023-02-23T11:49:52.510Z,69.34
2023-02-23T11:52:23.987Z,69.36
2023-02-23T11:55:02.280Z,69.12
2023-02-23T11:57:34.930Z,68.11
2023-02-23T12:00:21.668Z,68.17
2023-02-23T12:02:55.828Z,68.09
2023-02-23T12:05:30.169Z,68.26
2023-02-23T12:08:03.063Z,68.04
2023-02-23T12:10:51.166Z,68.16
2023-02-23T12:13:39.925Z,68.08
2023-02-23T12:16:25.445Z,68.00
2023-02-23T12:19:00.497Z,67.78
2023-02-23T12:21:47.060Z,67.51
2023-02-23T12:24:36.146Z,67.42
2023-02-23T12:27:14.013Z,67.40
2023-02-23T12:30:17.132Z,67.34
2023-02-23T12:33:12.366Z,67.34
2023-02-23T12:36:21.430Z,67.28
2023-02-23T12:39:34.484Z,67.05
2023-02-23T12:42:40.272Z,67.27
2023-02-23T12:45:27.229Z,66.94
2023-02-23T12:48:30.067Z,66.37
2023-02-23T12:51:02.771Z,66.09
2023-02-23T12:53:39.990Z,65.99
2023-02-23T12:56:33.942Z,66.20
2023-02-23T12:59:19.524Z,66.07
2023-02-23T13:02:18.950Z,66.16
2023-02-23T13:05:18.568Z,66.02
2023-02-23T13:07:57.137Z,65.70
2023-02-23T13:10:50.284Z,65.72
2023-02-23T13:13:42.807Z,65.59
2023-02-23T13:16:34.590Z,65.57
2023-02-23T13:19:22.036Z,65.63
2023-02-23T13:22:17.148Z,65.37
2023-02-23T13:24:49.774Z,65.30
2023-02-23T13:27:36.493Z,65.31
2023-02-23T13:30:09.743Z,65.21
2023-02-23T13:32:40.082Z,65.15
2023-02-23T13:35:17.288Z,65.10
2023-02-23T13:37:53.902Z,65.14
2023-02-23T13:40:51.249Z,64.91
2023-02-23T13:43:43.507Z,64.92
2023-02-23T13:46:27.106Z,64.84
2023-02-23T13:49:28.752Z,64.88
2023-02-23T13:52:11.402Z,64.70
2023-02-23T13:54:57.378Z,64.65
2023-02-23T13:57:28.952Z,64.64
2023-02-23T13:59:58.783Z,64.70
2023-02-23T14:02:39.913Z,64.55
2023-02-23T14:05:19.986Z,64.60
2023-02-23T14:07:54.926Z,64.40
2023-02-23T14:10:30.145Z,64.43
2023-02-23T14:13:25.356Z,64.47
2023-02-23T14:16:15.981Z,64.43
2023-02-23T14:18:58.317Z,64.34
2023-02-23T14:21:33.790Z,64.24
2023-02-23T14:24:27.516Z,64.15
2023-02-23T14:27:42.240Z,64.07
2023-02-23T14:30:11.773Z,64.01
2023-02-23T14:32:46.669Z,64.01
2023-02-23T14:35:36.936Z,63.96
2023-02-23T14:38:13.952Z,63.92
2023-02-23T14:40:49.330Z,63.84
2023-02-23T14:43:51.740Z,63.81
2023-02-23T14:46:24.071Z,63.74
2023-02-23T14:49:19.531Z,63.61
2023-02-23T14:52:04.820Z,63.55
2023-02-23T14:54:35.078Z,63.58
2023-02-23T14:57:26.783Z,63.54
2023-02-23T15:00:02.158Z,63.39
2023-02-23T15:02:31.880Z,63.52
2023-02-23T15:05:15.490Z,63.50
2023-02-23T15:07:46.126Z,63.49
2023-02-23T15:10:28.507Z,63.45
2023-02-23T15:12:58.175Z,63.32
2023-02-23T15:15:28.076Z,63.16
2023-02-23T15:18:01.501Z,63.22
2023-02-23T15:23:05.138Z,63.19
2023-02-23T15:25:40.120Z,63.23
2023-02-23T15:28:21.335Z,63.16
2023-02-23T15:30:51.916Z,63.16
2023-02-23T15:33:29.060Z,63.05
2023-02-23T15:36:16.111Z,63.02
2023-02-23T15:38:51.761Z,63.09
2023-02-23T15:41:38.609Z,63.01
2023-02-23T15:44:15.951Z,63.01
2023-02-23T15:46:48.903Z,62.99
2023-02-23T15:49:20.780Z,63.00
2023-02-23T15:51:53.473Z,63.03
2023-02-23T15:54:28.479Z,63.01
2023-02-23T15:57:02.686Z,62.93
2023-02-23T15:59:37.152Z,63.01
2023-02-23T16:02:17.036Z,63.08
2023-02-23T16:04:54.330Z,63.02
2023-02-23T16:07:26.337Z,62.96
2023-02-23T16:10:04.649Z,62.94
2023-02-23T16:12:38.830Z,62.81
2023-02-23T16:15:27.588Z,62.88
2023-02-23T16:18:03.876Z,63.03
2023-02-23T16:20:47.100Z,63.15
2023-02-23T16:23:42.263Z,63.26
2023-02-23T16:26:18.607Z,63.21
2023-02-23T16:28:47.944Z,63.18
2023-02-23T16:31:26.409Z,63.21
2023-02-23T16:33:57.393Z,63.31
2023-02-23T16:36:40.105Z,63.12
2023-02-23T16:39:13.455Z,63.05
2023-02-23T16:41:43.024Z,63.06
2023-02-23T16:44:16.698Z,63.08
2023-02-23T16:46:54.548Z,63.00
2023-02-23T16:49:23.740Z,63.04
2023-02-23T16:51:52.502Z,63.13
2023-02-23T16:54:21.449Z,63.22
2023-02-23T16:56:55.658Z,63.31
2023-02-23T16:59:25.062Z,63.39
2023-02-23T17:01:54.542Z,63.26
2023-02-23T17:04:24.072Z,63.14
2023-02-23T17:06:58.081Z,63.20
2023-02-23T17:09:27.760Z,63.27
2023-02-23T17:11:58.148Z,63.37
2023-02-23T17:14:32.211Z,63.29
2023-02-23T17:17:01.303Z,63.47
2023-02-23T17:19:30.381Z,63.31
2023-02-23T17:21:59.334Z,63.63
2023-02-23T17:24:28.282Z,63.49
2023-02-23T17:26:57.036Z,63.58
2023-02-23T17:29:25.969Z,63.52
2023-02-23T17:31:55.939Z,63.74
2023-02-23T17:34:26.735Z,63.77
2023-02-23T17:36:56.078Z,63.77
2023-02-23T17:39:28.556Z,63.80
2023-02-23T17:41:58.174Z,63.73
2023-02-23T17:44:26.664Z,63.64
2023-02-23T17:46:55.312Z,63.82
2023-02-23T17:49:25.755Z,64.00
2023-02-23T17:51:54.139Z,63.77
2023-02-23T17:54:22.986Z,63.88
2023-02-23T17:56:53.033Z,63.95
2023-02-23T17:59:21.935Z,63.98
2023-02-23T18:01:50.965Z,64.01
2023-02-23T18:04:31.507Z,64.01
2023-02-23T18:07:17.180Z,64.03
2023-02-23T18:10:11.245Z,64.11
2023-02-23T18:12:59.690Z,64.21
2023-02-23T18:15:46.065Z,64.16
2023-02-23T18:18:48.599Z,64.15
2023-02-23T18:21:33.858Z,64.15
2023-02-23T18:24:23.600Z,64.27
2023-02-23T18:27:20.638Z,64.33
2023-02-23T18:30:13.593Z,64.53
2023-02-23T18:33:13.853Z,64.51
2023-02-23T18:36:09.017Z,64.66
2023-02-23T18:39:06.664Z,64.73
2023-02-23T18:42:00.844Z,64.78
2023-02-23T18:44:37.234Z,64.79
2023-02-23T18:47:06.295Z,64.73
2023-02-23T18:49:35.206Z,64.82
2023-02-23T18:52:09.632Z,64.87
2023-02-23T18:54:40.494Z,64.87
2023-02-23T18:57:09.184Z,64.92
2023-02-23T18:59:37.956Z,64.94
2023-02-23T19:02:07.407Z,65.06
2023-02-23T19:04:36.796Z,65.10
2023-02-23T19:07:05.871Z,65.16
2023-02-23T19:09:34.749Z,65.04
2023-02-23T19:12:03.991Z,65.06
2023-02-23T19:14:48.262Z,65.16
2023-02-23T19:17:19.618Z,65.39
2023-02-23T19:19:51.752Z,65.41
2023-02-23T19:22:21.504Z,65.50
2023-02-23T19:24:50.251Z,65.57
2023-02-23T19:27:19.583Z,65.51
2023-02-23T19:29:48.909Z,65.48
2023-02-23T19:32:18.540Z,65.67
2023-02-23T19:34:48.133Z,65.77
2023-02-23T19:37:17.048Z,65.79
2023-02-23T19:39:46.767Z,65.78
2023-02-23T19:42:19.054Z,65.83
2023-02-23T19:44:52.306Z,65.71
2023-02-23T19:47:22.043Z,65.88
2023-02-23T19:49:51.035Z,65.85
2023-02-23T19:52:19.651Z,65.91
2023-02-23T19:54:48.545Z,66.02
2023-02-23T19:57:17.448Z,65.92
2023-02-23T19:59:46.201Z,66.02
2023-02-23T20:02:16.873Z,66.13
2023-02-23T20:04:52.480Z,66.17
2023-02-23T20:07:21.508Z,66.20
2023-02-23T20:09:50.261Z,66.32
2023-02-23T20:12:19.232Z,66.49
2023-02-23T20:14:50.325Z,66.42
2023-02-23T20:17:19.181Z,66.42
2023-02-23T20:19:48.281Z,66.55
2023-02-23T20:22:17.392Z,66.48
2023-02-23T20:24:46.471Z,66.53
2023-02-23T20:27:15.188Z,66.69
2023-02-23T20:29:44.530Z,66.77
2023-02-23T20:32:13.565Z,66.77
2023-02-23T20:34:45.828Z,66.66
2023-02-23T20:37:14.643Z,66.54
2023-02-23T20:39:43.602Z,66.90
2023-02-23T20:42:12.728Z,67.08
2023-02-23T20:44:41.672Z,67.12
2023-02-23T20:47:11.785Z,67.04
2023-02-23T20:49:42.074Z,66.87
2023-02-23T20:52:14.134Z,66.84
2023-02-23T20:54:42.960Z,67.06
2023-02-23T20:57:14.065Z,67.23
2023-02-23T20:59:46.035Z,67.20
2023-02-23T21:02:15.610Z,67.33
2023-02-23T21:04:45.280Z,67.45
2023-02-23T21:07:14.438Z,67.42
2023-02-23T21:09:43.758Z,67.32
2023-02-23T21:12:14.179Z,67.36
2023-02-23T21:14:42.917Z,67.39
2023-02-23T21:17:11.497Z,67.41
2023-02-23T21:19:40.968Z,67.50
2023-02-23T21:22:09.865Z,67.44
2023-02-23T21:24:41.236Z,67.56
2023-02-23T21:27:13.730Z,67.51
2023-02-23T21:29:46.232Z,67.57
2023-02-23T21:32:17.265Z,67.62
2023-02-23T21:34:46.374Z,67.59
2023-02-23T21:37:16.109Z,67.59
2023-02-23T21:39:47.349Z,67.53
2023-02-23T21:42:16.221Z,67.59
2023-02-23T21:44:45.990Z,67.56
2023-02-23T21:47:15.975Z,67.87
2023-02-23T21:49:49.607Z,67.89
2023-02-23T21:52:18.815Z,67.96
2023-02-23T21:54:53.105Z,67.97
2023-02-23T21:57:23.428Z,67.95
2023-02-23T21:59:53.265Z,67.93
2023-02-23T22:02:21.770Z,68.00
2023-02-23T22:04:51.397Z,68.11
2023-02-23T22:07:22.034Z,68.11
2023-02-23T22:09:50.882Z,68.05
2023-02-23T22:12:19.994Z,68.11
2023-02-23T22:14:49.031Z,68.16
2023-02-23T22:17:19.539Z,68.24
2023-02-23T22:19:51.238Z,68.27
2023-02-23T22:22:20.898Z,68.38
2023-02-23T22:24:50.394Z,68.35
2023-02-23T22:27:19.323Z,68.45
2023-02-23T22:29:48.263Z,68.59
2023-02-23T22:32:17.804Z,68.59
2023-02-23T22:34:46.922Z,68.66
2023-02-23T22:37:15.879Z,68.70
2023-02-23T22:39:45.098Z,68.77
2023-02-23T22:42:14.007Z,68.76
2023-02-23T22:44:42.973Z,68.80
2023-02-23T22:47:13.828Z,68.80
2023-02-23T22:49:42.545Z,68.83
2023-02-23T22:52:13.497Z,68.68
2023-02-23T22:54:46.013Z,68.83
2023-02-23T22:57:15.183Z,68.93
2023-02-23T22:59:55.206Z,68.82
2023-02-23T23:02:23.804Z,69.03
2023-02-23T23:04:55.019Z,69.15
2023-02-23T23:07:26.492Z,68.95
2023-02-23T23:09:55.603Z,68.99
2023-02-23T23:12:28.444Z,69.24
2023-02-23T23:15:01.552Z,69.35
2023-02-23T23:17:31.884Z,69.21
2023-02-23T23:20:01.280Z,69.18
2023-02-23T23:22:29.800Z,69.23
2023-02-23T23:24:58.959Z,69.33
2023-02-23T23:27:27.824Z,69.27
2023-02-23T23:29:56.433Z,69.43
2023-02-23T23:32:28.033Z,69.51
2023-02-23T23:34:58.801Z,69.60
2023-02-23T23:37:30.272Z,69.47
2023-02-23T23:40:14.354Z,69.48
2023-02-23T23:42:46.598Z,69.55
2023-02-23T23:45:17.822Z,69.66
2023-02-23T23:47:47.750Z,69.72
2023-02-23T23:50:17.550Z,69.89
2023-02-23T23:52:46.186Z,69.80
2023-02-23T23:55:15.868Z,69.76
2023-02-23T23:57:44.654Z,69.94
